sensor_id;sensor_type;location;lat;lon;timestamp;temperature;humidity
66594;DHT22;53450;42.584;23.366;2023-08-30T00:01:06;18.02;84.13
66594;DHT22;53450;42.584;23.366;2023-08-30T00:03:32;17.88;84.60
66594;DHT22;53450;42.584;23.366;2023-08-30T00:06:05;17.82;84.98
66594;DHT22;53450;42.584;23.366;2023-08-30T00:08:33;17.91;84.80
66594;DHT22;53450;42.584;23.366;2023-08-30T00:10:59;18.00;84.12
66594;DHT22;53450;42.584;23.366;2023-08-30T00:13:26;18.16;83.07
66594;DHT22;53450;42.584;23.366;2023-08-30T00:15:52;18.23;83.19
66594;DHT22;53450;42.584;23.366;2023-08-30T00:18:43;18.29;83.65
66594;DHT22;53450;42.584;23.366;2023-08-30T00:21:35;18.20;84.30
66594;DHT22;53450;42.584;23.366;2023-08-30T00:24:00;18.19;84.79
66594;DHT22;53450;42.584;23.366;2023-08-30T00:26:26;18.22;83.80
66594;DHT22;53450;42.584;23.366;2023-08-30T00:28:53;18.14;83.42
66594;DHT22;53450;42.584;23.366;2023-08-30T00:31:19;18.00;83.30
66594;DHT22;53450;42.584;23.366;2023-08-30T00:33:44;17.99;84.13
66594;DHT22;53450;42.584;23.366;2023-08-30T00:36:11;17.72;84.66
66594;DHT22;53450;42.584;23.366;2023-08-30T00:38:37;17.61;85.15
66594;DHT22;53450;42.584;23.366;2023-08-30T00:41:05;17.69;85.05
66594;DHT22;53450;42.584;23.366;2023-08-30T00:43:31;17.74;84.51
66594;DHT22;53450;42.584;23.366;2023-08-30T00:45:56;17.86;84.92
66594;DHT22;53450;42.584;23.366;2023-08-30T00:48:22;17.81;82.91
66594;DHT22;53450;42.584;23.366;2023-08-30T00:50:52;17.88;83.27
66594;DHT22;53450;42.584;23.366;2023-08-30T00:53:18;17.83;81.28
66594;DHT22;53450;42.584;23.366;2023-08-30T00:55:44;17.86;81.46
66594;DHT22;53450;42.584;23.366;2023-08-30T00:58:10;17.81;83.03
66594;DHT22;53450;42.584;23.366;2023-08-30T01:00:36;17.74;82.61
66594;DHT22;53450;42.584;23.366;2023-08-30T01:03:05;17.69;83.23
66594;DHT22;53450;42.584;23.366;2023-08-30T01:05:31;17.81;83.73
66594;DHT22;53450;42.584;23.366;2023-08-30T01:08:22;17.71;83.63
66594;DHT22;53450;42.584;23.366;2023-08-30T01:11:19;17.81;83.56
66594;DHT22;53450;42.584;23.366;2023-08-30T01:13:53;17.85;82.43
66594;DHT22;53450;42.584;23.366;2023-08-30T01:16:46;17.88;82.72
66594;DHT22;53450;42.584;23.366;2023-08-30T01:19:53;17.71;84.40
66594;DHT22;53450;42.584;23.366;2023-08-30T01:25:24;17.77;82.92
66594;DHT22;53450;42.584;23.366;2023-08-30T01:27:54;17.83;82.09
66594;DHT22;53450;42.584;23.366;2023-08-30T01:30:20;17.91;81.39
66594;DHT22;53450;42.584;23.366;2023-08-30T01:32:47;17.91;82.26
66594;DHT22;53450;42.584;23.366;2023-08-30T01:35:14;17.81;82.40
66594;DHT22;53450;42.584;23.366;2023-08-30T01:37:46;17.77;82.77
66594;DHT22;53450;42.584;23.366;2023-08-30T01:40:13;17.58;83.15
66594;DHT22;53450;42.584;23.366;2023-08-30T01:42:40;17.51;84.94
66594;DHT22;53450;42.584;23.366;2023-08-30T01:45:08;17.06;85.24
66594;DHT22;53450;42.584;23.366;2023-08-30T01:47:37;16.96;85.56
66594;DHT22;53450;42.584;23.366;2023-08-30T01:50:03;17.09;85.74
66594;DHT22;53450;42.584;23.366;2023-08-30T01:52:30;17.28;83.82
66594;DHT22;53450;42.584;23.366;2023-08-30T01:54:57;17.28;83.40
66594;DHT22;53450;42.584;23.366;2023-08-30T01:57:48;17.34;83.34
66594;DHT22;53450;42.584;23.366;2023-08-30T02:00:39;17.42;83.90
66594;DHT22;53450;42.584;23.366;2023-08-30T02:03:12;17.48;84.19
66594;DHT22;53450;42.584;23.366;2023-08-30T02:08:41;17.26;84.66
66594;DHT22;53450;42.584;23.366;2023-08-30T02:11:16;17.20;84.31
66594;DHT22;53450;42.584;23.366;2023-08-30T02:13:44;16.83;84.71
66594;DHT22;53450;42.584;23.366;2023-08-30T02:16:11;16.93;85.07
66594;DHT22;53450;42.584;23.366;2023-08-30T02:18:41;16.84;84.68
66594;DHT22;53450;42.584;23.366;2023-08-30T02:21:07;16.69;84.36
66594;DHT22;53450;42.584;23.366;2023-08-30T02:23:33;16.59;84.81
66594;DHT22;53450;42.584;23.366;2023-08-30T02:26:02;16.63;85.17
66594;DHT22;53450;42.584;23.366;2023-08-30T02:28:29;16.75;85.39
66594;DHT22;53450;42.584;23.366;2023-08-30T02:30:54;16.68;85.23
66594;DHT22;53450;42.584;23.366;2023-08-30T02:33:22;16.49;85.51
66594;DHT22;53450;42.584;23.366;2023-08-30T02:35:48;16.38;85.52
66594;DHT22;53450;42.584;23.366;2023-08-30T02:38:14;16.45;84.79
66594;DHT22;53450;42.584;23.366;2023-08-30T02:40:40;16.56;84.66
66594;DHT22;53450;42.584;23.366;2023-08-30T02:43:06;16.40;84.95
66594;DHT22;53450;42.584;23.366;2023-08-30T02:45:32;16.48;85.86
66594;DHT22;53450;42.584;23.366;2023-08-30T02:48:23;16.55;85.37
66594;DHT22;53450;42.584;23.366;2023-08-30T02:51:22;16.65;85.70
66594;DHT22;53450;42.584;23.366;2023-08-30T02:53:50;16.61;84.86
66594;DHT22;53450;42.584;23.366;2023-08-30T02:56:16;16.49;84.90
66594;DHT22;53450;42.584;23.366;2023-08-30T02:58:41;16.32;85.24
66594;DHT22;53450;42.584;23.366;2023-08-30T03:01:07;16.24;85.25
66594;DHT22;53450;42.584;23.366;2023-08-30T03:03:33;16.18;85.61
66594;DHT22;53450;42.584;23.366;2023-08-30T03:06:00;16.17;85.02
66594;DHT22;53450;42.584;23.366;2023-08-30T03:08:27;16.17;85.02
66594;DHT22;53450;42.584;23.366;2023-08-30T03:10:53;16.07;85.53
66594;DHT22;53450;42.584;23.366;2023-08-30T03:13:19;16.04;85.98
66594;DHT22;53450;42.584;23.366;2023-08-30T03:15:47;16.03;86.01
66594;DHT22;53450;42.584;23.366;2023-08-30T03:18:12;16.00;85.90
66594;DHT22;53450;42.584;23.366;2023-08-30T03:20:38;15.86;86.02
66594;DHT22;53450;42.584;23.366;2023-08-30T03:23:04;15.84;86.21
66594;DHT22;53450;42.584;23.366;2023-08-30T03:25:31;15.94;85.89
66594;DHT22;53450;42.584;23.366;2023-08-30T03:27:58;15.90;84.36
66594;DHT22;53450;42.584;23.366;2023-08-30T03:30:24;15.90;84.30
66594;DHT22;53450;42.584;23.366;2023-08-30T03:33:14;15.77;84.17
66594;DHT22;53450;42.584;23.366;2023-08-30T03:36:05;15.73;84.63
66594;DHT22;53450;42.584;23.366;2023-08-30T03:38:31;15.63;84.71
66594;DHT22;53450;42.584;23.366;2023-08-30T03:40:57;15.56;85.16
66594;DHT22;53450;42.584;23.366;2023-08-30T03:43:22;15.50;85.34
66594;DHT22;53450;42.584;23.366;2023-08-30T03:45:48;15.42;85.20
66594;DHT22;53450;42.584;23.366;2023-08-30T03:48:13;15.35;85.80
66594;DHT22;53450;42.584;23.366;2023-08-30T03:50:46;15.34;85.88
66594;DHT22;53450;42.584;23.366;2023-08-30T03:53:12;15.29;85.76
66594;DHT22;53450;42.584;23.366;2023-08-30T03:55:37;15.18;86.09
66594;DHT22;53450;42.584;23.366;2023-08-30T03:58:03;15.04;86.40
66594;DHT22;53450;42.584;23.366;2023-08-30T04:00:28;14.92;86.59
66594;DHT22;53450;42.584;23.366;2023-08-30T04:02:55;15.01;86.92
66594;DHT22;53450;42.584;23.366;2023-08-30T04:05:21;15.15;86.62
66594;DHT22;53450;42.584;23.366;2023-08-30T04:07:46;15.38;86.13
66594;DHT22;53450;42.584;23.366;2023-08-30T04:10:13;15.60;85.19
66594;DHT22;53450;42.584;23.366;2023-08-30T04:12:39;15.67;84.81
66594;DHT22;53450;42.584;23.366;2023-08-30T04:15:06;15.71;84.96
66594;DHT22;53450;42.584;23.366;2023-08-30T04:17:31;15.80;85.35
66594;DHT22;53450;42.584;23.366;2023-08-30T04:19:58;15.83;85.40
66594;DHT22;53450;42.584;23.366;2023-08-30T04:22:24;15.82;86.03
66594;DHT22;53450;42.584;23.366;2023-08-30T04:24:50;16.18;86.04
66594;DHT22;53450;42.584;23.366;2023-08-30T04:27:15;16.34;84.91
66594;DHT22;53450;42.584;23.366;2023-08-30T04:29:41;16.52;85.01
66594;DHT22;53450;42.584;23.366;2023-08-30T04:32:10;16.65;84.96
66594;DHT22;53450;42.584;23.366;2023-08-30T04:34:36;16.73;85.25
66594;DHT22;53450;42.584;23.366;2023-08-30T04:37:02;16.89;84.32
66594;DHT22;53450;42.584;23.366;2023-08-30T04:39:28;17.04;84.30
66594;DHT22;53450;42.584;23.366;2023-08-30T04:41:54;17.34;84.97
66594;DHT22;53450;42.584;23.366;2023-08-30T04:44:21;17.50;83.76
66594;DHT22;53450;42.584;23.366;2023-08-30T04:46:49;17.48;82.83
66594;DHT22;53450;42.584;23.366;2023-08-30T04:49:19;17.45;84.28
66594;DHT22;53450;42.584;23.366;2023-08-30T04:51:47;17.40;83.98
66594;DHT22;53450;42.584;23.366;2023-08-30T04:54:13;17.38;84.24
66594;DHT22;53450;42.584;23.366;2023-08-30T04:56:39;17.34;82.69
66594;DHT22;53450;42.584;23.366;2023-08-30T04:59:05;17.40;82.40
66594;DHT22;53450;42.584;23.366;2023-08-30T05:01:31;17.55;82.18
66594;DHT22;53450;42.584;23.366;2023-08-30T05:04:00;17.67;83.58
66594;DHT22;53450;42.584;23.366;2023-08-30T05:06:26;17.67;82.95
66594;DHT22;53450;42.584;23.366;2023-08-30T05:08:53;17.60;82.38
66594;DHT22;53450;42.584;23.366;2023-08-30T05:11:18;17.68;83.35
66594;DHT22;53450;42.584;23.366;2023-08-30T05:13:45;17.82;83.83
66594;DHT22;53450;42.584;23.366;2023-08-30T05:16:13;17.86;83.32
66594;DHT22;53450;42.584;23.366;2023-08-30T05:18:38;17.74;82.29
66594;DHT22;53450;42.584;23.366;2023-08-30T05:21:04;17.71;84.14
66594;DHT22;53450;42.584;23.366;2023-08-30T05:23:30;17.69;84.42
66594;DHT22;53450;42.584;23.366;2023-08-30T05:25:58;17.75;83.97
66594;DHT22;53450;42.584;23.366;2023-08-30T05:28:26;17.67;83.79
66594;DHT22;53450;42.584;23.366;2023-08-30T05:30:52;17.86;83.59
66594;DHT22;53450;42.584;23.366;2023-08-30T05:33:36;18.03;81.61
66594;DHT22;53450;42.584;23.366;2023-08-30T05:36:31;18.20;80.64
66594;DHT22;53450;42.584;23.366;2023-08-30T05:39:29;18.20;82.70
66594;DHT22;53450;42.584;23.366;2023-08-30T05:41:56;18.12;81.19
66594;DHT22;53450;42.584;23.366;2023-08-30T05:44:22;18.19;80.17
66594;DHT22;53450;42.584;23.366;2023-08-30T05:46:48;18.30;79.19
66594;DHT22;53450;42.584;23.366;2023-08-30T05:49:13;18.32;78.03
66594;DHT22;53450;42.584;23.366;2023-08-30T05:51:39;18.29;77.43
66594;DHT22;53450;42.584;23.366;2023-08-30T05:54:05;18.26;76.62
66594;DHT22;53450;42.584;23.366;2023-08-30T05:56:31;18.39;76.90
66594;DHT22;53450;42.584;23.366;2023-08-30T05:58:56;18.63;77.03
66594;DHT22;53450;42.584;23.366;2023-08-30T06:01:22;18.64;73.56
66594;DHT22;53450;42.584;23.366;2023-08-30T06:03:53;18.74;73.24
66594;DHT22;53450;42.584;23.366;2023-08-30T06:06:20;18.84;71.37
66594;DHT22;53450;42.584;23.366;2023-08-30T06:08:48;18.81;73.23
66594;DHT22;53450;42.584;23.366;2023-08-30T06:11:14;18.88;71.80
66594;DHT22;53450;42.584;23.366;2023-08-30T06:13:40;19.01;71.11
66594;DHT22;53450;42.584;23.366;2023-08-30T06:16:06;19.04;70.84
66594;DHT22;53450;42.584;23.366;2023-08-30T06:18:35;19.11;70.95
66594;DHT22;53450;42.584;23.366;2023-08-30T06:21:04;19.26;70.92
66594;DHT22;53450;42.584;23.366;2023-08-30T06:23:33;19.30;73.42
66594;DHT22;53450;42.584;23.366;2023-08-30T06:25:58;19.32;69.00
66594;DHT22;53450;42.584;23.366;2023-08-30T06:28:28;19.46;71.18
66594;DHT22;53450;42.584;23.366;2023-08-30T06:30:54;19.55;70.81
66594;DHT22;53450;42.584;23.366;2023-08-30T06:33:25;19.62;69.16
66594;DHT22;53450;42.584;23.366;2023-08-30T06:35:53;19.70;68.61
66594;DHT22;53450;42.584;23.366;2023-08-30T06:38:20;19.80;70.41
66594;DHT22;53450;42.584;23.366;2023-08-30T06:40:47;19.84;70.41
66594;DHT22;53450;42.584;23.366;2023-08-30T06:43:12;19.94;69.14
66594;DHT22;53450;42.584;23.366;2023-08-30T06:45:41;20.10;71.33
66594;DHT22;53450;42.584;23.366;2023-08-30T06:48:15;20.25;69.56
66594;DHT22;53450;42.584;23.366;2023-08-30T06:50:43;20.42;68.80
66594;DHT22;53450;42.584;23.366;2023-08-30T06:53:08;20.56;67.49
66594;DHT22;53450;42.584;23.366;2023-08-30T06:55:34;20.65;67.97
66594;DHT22;53450;42.584;23.366;2023-08-30T06:58:02;20.75;66.78
66594;DHT22;53450;42.584;23.366;2023-08-30T07:00:37;20.83;66.80
66594;DHT22;53450;42.584;23.366;2023-08-30T07:03:08;20.84;66.69
66594;DHT22;53450;42.584;23.366;2023-08-30T07:05:37;20.69;66.01
66594;DHT22;53450;42.584;23.366;2023-08-30T07:08:05;20.71;65.88
66594;DHT22;53450;42.584;23.366;2023-08-30T07:10:39;20.71;66.87
66594;DHT22;53450;42.584;23.366;2023-08-30T07:13:04;20.62;65.62
66594;DHT22;53450;42.584;23.366;2023-08-30T07:15:36;20.73;67.51
66594;DHT22;53450;42.584;23.366;2023-08-30T07:18:02;20.84;66.02
66594;DHT22;53450;42.584;23.366;2023-08-30T07:20:29;21.06;67.15
66594;DHT22;53450;42.584;23.366;2023-08-30T07:22:58;21.26;66.45
66594;DHT22;53450;42.584;23.366;2023-08-30T07:25:23;21.37;67.77
66594;DHT22;53450;42.584;23.366;2023-08-30T07:27:50;21.35;67.61
66594;DHT22;53450;42.584;23.366;2023-08-30T07:30:16;21.31;65.34
66594;DHT22;53450;42.584;23.366;2023-08-30T07:32:42;21.40;65.04
66594;DHT22;53450;42.584;23.366;2023-08-30T07:35:10;21.31;64.72
66594;DHT22;53450;42.584;23.366;2023-08-30T07:37:38;21.42;66.21
66594;DHT22;53450;42.584;23.366;2023-08-30T07:40:04;21.47;65.17
66594;DHT22;53450;42.584;23.366;2023-08-30T07:42:32;21.37;65.10
66594;DHT22;53450;42.584;23.366;2023-08-30T07:45:01;21.34;66.54
66594;DHT22;53450;42.584;23.366;2023-08-30T07:47:26;21.28;67.82
66594;DHT22;53450;42.584;23.366;2023-08-30T07:49:54;21.35;64.45
66594;DHT22;53450;42.584;23.366;2023-08-30T07:52:19;21.40;62.26
66594;DHT22;53450;42.584;23.366;2023-08-30T07:54:47;21.55;64.38
66594;DHT22;53450;42.584;23.366;2023-08-30T07:57:13;21.79;63.55
66594;DHT22;53450;42.584;23.366;2023-08-30T08:00:04;22.00;61.43
66594;DHT22;53450;42.584;23.366;2023-08-30T08:02:56;21.99;59.91
66594;DHT22;53450;42.584;23.366;2023-08-30T08:05:22;22.09;58.72
66594;DHT22;53450;42.584;23.366;2023-08-30T08:07:51;22.35;58.81
66594;DHT22;53450;42.584;23.366;2023-08-30T08:10:17;22.54;59.68
66594;DHT22;53450;42.584;23.366;2023-08-30T08:12:43;22.47;59.29
66594;DHT22;53450;42.584;23.366;2023-08-30T08:15:09;22.51;59.97
66594;DHT22;53450;42.584;23.366;2023-08-30T08:17:35;22.50;59.40
66594;DHT22;53450;42.584;23.366;2023-08-30T08:20:01;22.67;57.37
66594;DHT22;53450;42.584;23.366;2023-08-30T08:22:34;22.70;56.68
66594;DHT22;53450;42.584;23.366;2023-08-30T08:25:00;22.83;57.82
66594;DHT22;53450;42.584;23.366;2023-08-30T08:27:25;22.84;57.66
66594;DHT22;53450;42.584;23.366;2023-08-30T08:29:51;22.65;57.80
66594;DHT22;53450;42.584;23.366;2023-08-30T08:32:42;22.49;57.79
66594;DHT22;53450;42.584;23.366;2023-08-30T08:35:35;22.54;56.59
66594;DHT22;53450;42.584;23.366;2023-08-30T08:38:01;22.49;56.07
66594;DHT22;53450;42.584;23.366;2023-08-30T08:40:26;22.51;56.85
66594;DHT22;53450;42.584;23.366;2023-08-30T08:42:57;22.67;55.47
66594;DHT22;53450;42.584;23.366;2023-08-30T08:45:26;22.74;55.93
66594;DHT22;53450;42.584;23.366;2023-08-30T08:47:51;22.88;54.23
66594;DHT22;53450;42.584;23.366;2023-08-30T08:50:17;22.92;54.18
66594;DHT22;53450;42.584;23.366;2023-08-30T08:52:45;23.18;53.23
66594;DHT22;53450;42.584;23.366;2023-08-30T08:55:13;23.16;53.64
66594;DHT22;53450;42.584;23.366;2023-08-30T08:57:39;23.09;54.03
66594;DHT22;53450;42.584;23.366;2023-08-30T09:00:05;23.19;53.79
66594;DHT22;53450;42.584;23.366;2023-08-30T09:02:32;23.05;52.45
66594;DHT22;53450;42.584;23.366;2023-08-30T09:04:58;23.01;52.94
66594;DHT22;53450;42.584;23.366;2023-08-30T09:07:26;23.02;53.99
66594;DHT22;53450;42.584;23.366;2023-08-30T09:09:55;23.01;53.52
66594;DHT22;53450;42.584;23.366;2023-08-30T09:12:24;22.87;53.35
66594;DHT22;53450;42.584;23.366;2023-08-30T09:14:56;23.08;53.98
66594;DHT22;53450;42.584;23.366;2023-08-30T09:17:39;23.05;53.76
66594;DHT22;53450;42.584;23.366;2023-08-30T09:20:12;23.01;53.51
66594;DHT22;53450;42.584;23.366;2023-08-30T09:23:03;23.01;54.05
66594;DHT22;53450;42.584;23.366;2023-08-30T09:25:56;22.87;53.62
66594;DHT22;53450;42.584;23.366;2023-08-30T09:28:22;22.65;53.59
66594;DHT22;53450;42.584;23.366;2023-08-30T09:30:51;22.83;54.68
66594;DHT22;53450;42.584;23.366;2023-08-30T09:33:32;22.95;54.23
66594;DHT22;53450;42.584;23.366;2023-08-30T09:35:58;22.83;53.61
66594;DHT22;53450;42.584;23.366;2023-08-30T09:38:24;22.81;54.77
66594;DHT22;53450;42.584;23.366;2023-08-30T09:40:51;23.01;54.51
66594;DHT22;53450;42.584;23.366;2023-08-30T09:43:24;23.08;53.37
66594;DHT22;53450;42.584;23.366;2023-08-30T09:45:54;23.32;54.50
66594;DHT22;53450;42.584;23.366;2023-08-30T09:48:28;23.65;53.49
66594;DHT22;53450;42.584;23.366;2023-08-30T09:50:54;23.87;53.82
66594;DHT22;53450;42.584;23.366;2023-08-30T09:53:28;23.80;52.24
66594;DHT22;53450;42.584;23.366;2023-08-30T09:55:57;23.90;52.54
66594;DHT22;53450;42.584;23.366;2023-08-30T09:58:27;23.65;52.91
66594;DHT22;53450;42.584;23.366;2023-08-30T10:00:53;23.80;52.59
66594;DHT22;53450;42.584;23.366;2023-08-30T10:03:20;23.87;53.33
66594;DHT22;53450;42.584;23.366;2023-08-30T10:05:46;23.86;52.89
66594;DHT22;53450;42.584;23.366;2023-08-30T10:08:14;23.97;53.44
66594;DHT22;53450;42.584;23.366;2023-08-30T10:10:40;24.14;50.54
66594;DHT22;53450;42.584;23.366;2023-08-30T10:13:17;24.35;52.18
66594;DHT22;53450;42.584;23.366;2023-08-30T10:15:45;24.52;52.13
66594;DHT22;53450;42.584;23.366;2023-08-30T10:18:15;24.49;50.78
66594;DHT22;53450;42.584;23.366;2023-08-30T10:20:44;24.38;51.13
66594;DHT22;53450;42.584;23.366;2023-08-30T10:23:14;23.71;51.78
66594;DHT22;53450;42.584;23.366;2023-08-30T10:25:40;23.67;52.36
66594;DHT22;53450;42.584;23.366;2023-08-30T10:28:11;23.59;51.38
66594;DHT22;53450;42.584;23.366;2023-08-30T10:31:03;23.59;53.21
66594;DHT22;53450;42.584;23.366;2023-08-30T10:33:54;23.81;52.39
66594;DHT22;53450;42.584;23.366;2023-08-30T10:36:26;24.01;50.81
66594;DHT22;53450;42.584;23.366;2023-08-30T10:38:55;24.32;51.35
66594;DHT22;53450;42.584;23.366;2023-08-30T10:41:25;24.29;51.71
66594;DHT22;53450;42.584;23.366;2023-08-30T10:43:52;24.24;52.08
66594;DHT22;53450;42.584;23.366;2023-08-30T10:46:33;24.36;51.18
66594;DHT22;53450;42.584;23.366;2023-08-30T10:49:12;24.31;50.27
66594;DHT22;53450;42.584;23.366;2023-08-30T10:51:41;24.28;50.89
66594;DHT22;53450;42.584;23.366;2023-08-30T10:54:21;24.51;50.50
66594;DHT22;53450;42.584;23.366;2023-08-30T10:56:48;24.63;50.64
66594;DHT22;53450;42.584;23.366;2023-08-30T10:59:21;24.29;50.31
66594;DHT22;53450;42.584;23.366;2023-08-30T11:02:20;24.42;51.14
66594;DHT22;53450;42.584;23.366;2023-08-30T11:04:51;24.66;50.65
66594;DHT22;53450;42.584;23.366;2023-08-30T11:07:21;24.72;49.93
66594;DHT22;53450;42.584;23.366;2023-08-30T11:09:51;24.94;48.90
66594;DHT22;53450;42.584;23.366;2023-08-30T11:12:18;24.77;49.10
66594;DHT22;53450;42.584;23.366;2023-08-30T11:14:56;24.73;49.24
66594;DHT22;53450;42.584;23.366;2023-08-30T11:17:26;24.90;49.66
66594;DHT22;53450;42.584;23.366;2023-08-30T11:19:57;24.92;48.98
66594;DHT22;53450;42.584;23.366;2023-08-30T11:22:24;25.23;49.05
66594;DHT22;53450;42.584;23.366;2023-08-30T11:25:00;25.43;48.36
66594;DHT22;53450;42.584;23.366;2023-08-30T11:27:26;25.67;47.39
66594;DHT22;53450;42.584;23.366;2023-08-30T11:29:59;25.54;49.67
66594;DHT22;53450;42.584;23.366;2023-08-30T11:32:41;25.33;49.06
66594;DHT22;53450;42.584;23.366;2023-08-30T11:35:11;25.07;49.54
66594;DHT22;53450;42.584;23.366;2023-08-30T11:37:36;25.00;49.38
66594;DHT22;53450;42.584;23.366;2023-08-30T11:40:03;24.86;51.22
66594;DHT22;53450;42.584;23.366;2023-08-30T11:42:32;24.65;51.51
66594;DHT22;53450;42.584;23.366;2023-08-30T11:45:08;24.75;51.18
66594;DHT22;53450;42.584;23.366;2023-08-30T11:47:34;24.90;50.94
66594;DHT22;53450;42.584;23.366;2023-08-30T11:50:00;25.00;50.68
66594;DHT22;53450;42.584;23.366;2023-08-30T11:52:26;25.14;50.12
66594;DHT22;53450;42.584;23.366;2023-08-30T11:54:52;25.41;49.04
66594;DHT22;53450;42.584;23.366;2023-08-30T11:57:19;25.43;48.95
66594;DHT22;53450;42.584;23.366;2023-08-30T11:59:48;25.65;48.38
66594;DHT22;53450;42.584;23.366;2023-08-30T12:02:17;25.78;47.27
66594;DHT22;53450;42.584;23.366;2023-08-30T12:04:56;25.84;46.80
66594;DHT22;53450;42.584;23.366;2023-08-30T12:07:25;25.93;46.96
66594;DHT22;53450;42.584;23.366;2023-08-30T12:10:05;25.75;46.58
66594;DHT22;53450;42.584;23.366;2023-08-30T12:12:31;26.01;46.91
66594;DHT22;53450;42.584;23.366;2023-08-30T12:15:15;26.12;45.74
66594;DHT22;53450;42.584;23.366;2023-08-30T12:17:48;26.13;45.36
66594;DHT22;53450;42.584;23.366;2023-08-30T12:20:17;26.16;45.29
66594;DHT22;53450;42.584;23.366;2023-08-30T12:22:50;26.28;44.41
66594;DHT22;53450;42.584;23.366;2023-08-30T12:25:18;26.20;44.43
66594;DHT22;53450;42.584;23.366;2023-08-30T12:27:44;26.25;44.64
66594;DHT22;53450;42.584;23.366;2023-08-30T12:30:10;26.26;44.05
66594;DHT22;53450;42.584;23.366;2023-08-30T12:32:39;26.28;45.59
66594;DHT22;53450;42.584;23.366;2023-08-30T12:35:04;26.05;45.15
66594;DHT22;53450;42.584;23.366;2023-08-30T12:37:33;26.03;45.78
66594;DHT22;53450;42.584;23.366;2023-08-30T12:39:58;25.95;45.03
66594;DHT22;53450;42.584;23.366;2023-08-30T12:42:24;25.82;45.28
66594;DHT22;53450;42.584;23.366;2023-08-30T12:44:52;25.99;44.53
66594;DHT22;53450;42.584;23.366;2023-08-30T12:47:20;26.13;44.78
66594;DHT22;53450;42.584;23.366;2023-08-30T12:49:46;26.28;43.61
66594;DHT22;53450;42.584;23.366;2023-08-30T12:52:19;26.41;44.09
66594;DHT22;53450;42.584;23.366;2023-08-30T12:54:44;26.64;43.28
66594;DHT22;53450;42.584;23.366;2023-08-30T12:57:10;26.81;43.34
66594;DHT22;53450;42.584;23.366;2023-08-30T12:59:39;26.77;41.62
66594;DHT22;53450;42.584;23.366;2023-08-30T13:02:07;26.73;42.27
66594;DHT22;53450;42.584;23.366;2023-08-30T13:04:33;26.76;42.25
66594;DHT22;53450;42.584;23.366;2023-08-30T13:06:59;26.67;39.66
66594;DHT22;53450;42.584;23.366;2023-08-30T13:09:32;26.87;40.07
66594;DHT22;53450;42.584;23.366;2023-08-30T13:12:01;27.22;40.25
66594;DHT22;53450;42.584;23.366;2023-08-30T13:14:27;27.46;39.84
66594;DHT22;53450;42.584;23.366;2023-08-30T13:16:52;27.22;38.57
66594;DHT22;53450;42.584;23.366;2023-08-30T13:19:20;27.35;40.26
66594;DHT22;53450;42.584;23.366;2023-08-30T13:21:49;27.62;40.07
66594;DHT22;53450;42.584;23.366;2023-08-30T13:24:17;27.48;39.36
66594;DHT22;53450;42.584;23.366;2023-08-30T13:26:47;27.63;38.98
66594;DHT22;53450;42.584;23.366;2023-08-30T13:29:13;27.77;39.60
66594;DHT22;53450;42.584;23.366;2023-08-30T13:31:43;27.83;39.34
66594;DHT22;53450;42.584;23.366;2023-08-30T13:34:08;27.98;38.87
66594;DHT22;53450;42.584;23.366;2023-08-30T13:36:39;28.21;37.81
66594;DHT22;53450;42.584;23.366;2023-08-30T13:39:30;28.01;36.57
66594;DHT22;53450;42.584;23.366;2023-08-30T13:42:21;27.80;38.48
66594;DHT22;53450;42.584;23.366;2023-08-30T13:44:50;27.52;38.49
66594;DHT22;53450;42.584;23.366;2023-08-30T13:47:16;27.55;35.06
66594;DHT22;53450;42.584;23.366;2023-08-30T13:49:42;27.66;32.13
66594;DHT22;53450;42.584;23.366;2023-08-30T13:52:07;27.69;31.75
66594;DHT22;53450;42.584;23.366;2023-08-30T13:54:33;27.52;31.47
66594;DHT22;53450;42.584;23.366;2023-08-30T13:56:59;27.71;31.99
66594;DHT22;53450;42.584;23.366;2023-08-30T13:59:49;27.83;31.93
66594;DHT22;53450;42.584;23.366;2023-08-30T14:02:15;27.82;31.78
66594;DHT22;53450;42.584;23.366;2023-08-30T14:04:43;27.67;29.67
66594;DHT22;53450;42.584;23.366;2023-08-30T14:07:34;27.62;29.77
66594;DHT22;53450;42.584;23.366;2023-08-30T14:10:24;27.55;29.86
66594;DHT22;53450;42.584;23.366;2023-08-30T14:13:16;27.63;30.87
66594;DHT22;53450;42.584;23.366;2023-08-30T14:16:07;27.90;28.76
66594;DHT22;53450;42.584;23.366;2023-08-30T14:18:40;28.00;29.49
66594;DHT22;53450;42.584;23.366;2023-08-30T14:21:06;27.77;29.59
66594;DHT22;53450;42.584;23.366;2023-08-30T14:23:31;27.66;30.24
66594;DHT22;53450;42.584;23.366;2023-08-30T14:26:05;27.63;30.54
66594;DHT22;53450;42.584;23.366;2023-08-30T14:28:41;27.53;31.05
66594;DHT22;53450;42.584;23.366;2023-08-30T14:31:07;27.70;32.08
66594;DHT22;53450;42.584;23.366;2023-08-30T14:33:42;27.55;30.26
66594;DHT22;53450;42.584;23.366;2023-08-30T14:36:15;27.56;31.20
66594;DHT22;53450;42.584;23.366;2023-08-30T14:38:44;27.45;30.67
66594;DHT22;53450;42.584;23.366;2023-08-30T14:41:09;27.53;31.32
66594;DHT22;53450;42.584;23.366;2023-08-30T14:43:35;27.70;30.23
66594;DHT22;53450;42.584;23.366;2023-08-30T14:46:06;27.74;30.70
66594;DHT22;53450;42.584;23.366;2023-08-30T14:48:34;27.80;30.86
66594;DHT22;53450;42.584;23.366;2023-08-30T14:51:01;27.80;30.72
66594;DHT22;53450;42.584;23.366;2023-08-30T14:53:26;27.74;32.71
66594;DHT22;53450;42.584;23.366;2023-08-30T14:55:52;27.65;32.18
66594;DHT22;53450;42.584;23.366;2023-08-30T14:58:26;27.29;32.07
66594;DHT22;53450;42.584;23.366;2023-08-30T15:00:51;27.29;32.91
66594;DHT22;53450;42.584;23.366;2023-08-30T15:03:17;27.12;32.07
66594;DHT22;53450;42.584;23.366;2023-08-30T15:05:42;26.90;32.17
66594;DHT22;53450;42.584;23.366;2023-08-30T15:08:10;26.71;32.39
66594;DHT22;53450;42.584;23.366;2023-08-30T15:10:38;26.61;33.25
66594;DHT22;53450;42.584;23.366;2023-08-30T15:13:04;26.68;33.08
66594;DHT22;53450;42.584;23.366;2023-08-30T15:15:40;26.77;33.69
66594;DHT22;53450;42.584;23.366;2023-08-30T15:18:11;26.76;33.28
66594;DHT22;53450;42.584;23.366;2023-08-30T15:20:37;26.70;34.15
66594;DHT22;53450;42.584;23.366;2023-08-30T15:23:03;26.71;33.05
66594;DHT22;53450;42.584;23.366;2023-08-30T15:25:28;26.65;34.27
66594;DHT22;53450;42.584;23.366;2023-08-30T15:28:01;26.44;33.18
66594;DHT22;53450;42.584;23.366;2023-08-30T15:30:29;26.25;35.02
66594;DHT22;53450;42.584;23.366;2023-08-30T15:32:54;26.01;34.82
66594;DHT22;53450;42.584;23.366;2023-08-30T15:35:22;25.78;35.62
66594;DHT22;53450;42.584;23.366;2023-08-30T15:37:48;25.77;35.88